sensor_id;sensor_type;location;lat;lon;timestamp;P1;durP1;ratioP1;P2;durP2;ratioP2
72388;SDS011;60566;48.062;9.930;2023-10-13T00:02:11;8.80;;;3.15;;
72388;SDS011;60566;48.062;9.930;2023-10-13T00:04:38;9.70;;;3.20;;
72388;SDS011;60566;48.062;9.930;2023-10-13T00:07:03;9.18;;;3.17;;
72388;SDS011;60566;48.062;9.930;2023-10-13T00:09:29;7.75;;;2.85;;
72388;SDS011;60566;48.062;9.930;2023-10-13T00:11:55;8.57;;;2.75;;
72388;SDS011;60566;48.062;9.930;2023-10-13T00:14:21;9.70;;;3.15;;
72388;SDS011;60566;48.062;9.930;2023-10-13T00:16:46;6.78;;;2.95;;
72388;SDS011;60566;48.062;9.930;2023-10-13T00:19:11;8.82;;;3.13;;
72388;SDS011;60566;48.062;9.930;2023-10-13T00:21:38;12.30;;;3.30;;
72388;SDS011;60566;48.062;9.930;2023-10-13T00:24:04;7.70;;;3.15;;
72388;SDS011;60566;48.062;9.930;2023-10-13T00:26:30;8.80;;;3.20;;
72388;SDS011;60566;48.062;9.930;2023-10-13T00:28:55;7.63;;;3.30;;
72388;SDS011;60566;48.062;9.930;2023-10-13T00:31:21;8.05;;;3.63;;
72388;SDS011;60566;48.062;9.930;2023-10-13T00:33:46;6.35;;;3.00;;
72388;SDS011;60566;48.062;9.930;2023-10-13T00:36:12;8.93;;;2.70;;
72388;SDS011;60566;48.062;9.930;2023-10-13T00:38:39;11.38;;;3.90;;
72388;SDS011;60566;48.062;9.930;2023-10-13T00:41:04;7.15;;;3.80;;
72388;SDS011;60566;48.062;9.930;2023-10-13T00:43:29;5.97;;;3.03;;
72388;SDS011;60566;48.062;9.930;2023-10-13T00:45:55;10.32;;;2.95;;
72388;SDS011;60566;48.062;9.930;2023-10-13T00:48:21;8.02;;;2.42;;
72388;SDS011;60566;48.062;9.930;2023-10-13T00:50:47;8.55;;;2.90;;
72388;SDS011;60566;48.062;9.930;2023-10-13T00:53:12;7.63;;;2.97;;
72388;SDS011;60566;48.062;9.930;2023-10-13T00:55:39;8.48;;;3.15;;
72388;SDS011;60566;48.062;9.930;2023-10-13T00:58:05;7.72;;;3.22;;
72388;SDS011;60566;48.062;9.930;2023-10-13T01:00:30;7.97;;;2.83;;
72388;SDS011;60566;48.062;9.930;2023-10-13T01:02:56;10.65;;;2.80;;
72388;SDS011;60566;48.062;9.930;2023-10-13T01:05:21;7.32;;;2.90;;
72388;SDS011;60566;48.062;9.930;2023-10-13T01:07:47;6.85;;;2.85;;
72388;SDS011;60566;48.062;9.930;2023-10-13T01:10:12;7.07;;;2.80;;
72388;SDS011;60566;48.062;9.930;2023-10-13T01:12:39;9.55;;;3.70;;
72388;SDS011;60566;48.062;9.930;2023-10-13T01:15:05;6.28;;;3.72;;
72388;SDS011;60566;48.062;9.930;2023-10-13T01:17:31;7.85;;;3.17;;
72388;SDS011;60566;48.062;9.930;2023-10-13T01:19:56;7.15;;;3.00;;
72388;SDS011;60566;48.062;9.930;2023-10-13T01:22:22;9.02;;;3.03;;
72388;SDS011;60566;48.062;9.930;2023-10-13T01:24:49;8.43;;;2.88;;
72388;SDS011;60566;48.062;9.930;2023-10-13T01:27:14;8.23;;;3.05;;
72388;SDS011;60566;48.062;9.930;2023-10-13T01:29:39;7.15;;;2.83;;
72388;SDS011;60566;48.062;9.930;2023-10-13T01:32:05;9.18;;;3.53;;
72388;SDS011;60566;48.062;9.930;2023-10-13T01:34:32;7.93;;;3.17;;
72388;SDS011;60566;48.062;9.930;2023-10-13T01:36:58;6.38;;;2.60;;
72388;SDS011;60566;48.062;9.930;2023-10-13T01:39:23;10.15;;;3.35;;
72388;SDS011;60566;48.062;9.930;2023-10-13T01:41:50;9.00;;;3.17;;
72388;SDS011;60566;48.062;9.930;2023-10-13T01:44:16;6.80;;;3.08;;
72388;SDS011;60566;48.062;9.930;2023-10-13T01:46:41;7.90;;;2.85;;
72388;SDS011;60566;48.062;9.930;2023-10-13T01:49:07;8.63;;;3.25;;
72388;SDS011;60566;48.062;9.930;2023-10-13T01:51:32;9.75;;;3.13;;
72388;SDS011;60566;48.062;9.930;2023-10-13T01:53:57;6.70;;;2.80;;
72388;SDS011;60566;48.062;9.930;2023-10-13T01:56:23;12.50;;;3.38;;
72388;SDS011;60566;48.062;9.930;2023-10-13T01:58:50;7.38;;;3.15;;
72388;SDS011;60566;48.062;9.930;2023-10-13T02:01:15;9.23;;;3.30;;
72388;SDS011;60566;48.062;9.930;2023-10-13T02:03:41;9.82;;;3.67;;
72388;SDS011;60566;48.062;9.930;2023-10-13T02:06:06;7.85;;;3.22;;
72388;SDS011;60566;48.062;9.930;2023-10-13T02:08:32;10.95;;;2.90;;
72388;SDS011;60566;48.062;9.930;2023-10-13T02:10:58;9.05;;;3.55;;
72388;SDS011;60566;48.062;9.930;2023-10-13T02:13:24;7.45;;;3.00;;
72388;SDS011;60566;48.062;9.930;2023-10-13T02:15:54;8.30;;;3.10;;
72388;SDS011;60566;48.062;9.930;2023-10-13T02:18:20;12.05;;;2.83;;
72388;SDS011;60566;48.062;9.930;2023-10-13T02:20:46;11.48;;;3.33;;
72388;SDS011;60566;48.062;9.930;2023-10-13T02:23:12;6.90;;;3.22;;
72388;SDS011;60566;48.062;9.930;2023-10-13T02:25:37;7.22;;;2.92;;
72388;SDS011;60566;48.062;9.930;2023-10-13T02:28:03;8.60;;;3.03;;
72388;SDS011;60566;48.062;9.930;2023-10-13T02:30:29;6.53;;;3.03;;
72388;SDS011;60566;48.062;9.930;2023-10-13T02:32:55;9.52;;;3.15;;
72388;SDS011;60566;48.062;9.930;2023-10-13T02:35:21;7.65;;;3.00;;
72388;SDS011;60566;48.062;9.930;2023-10-13T02:37:46;6.68;;;2.70;;
72388;SDS011;60566;48.062;9.930;2023-10-13T02:40:12;7.55;;;2.95;;
72388;SDS011;60566;48.062;9.930;2023-10-13T02:42:37;8.57;;;3.30;;
72388;SDS011;60566;48.062;9.930;2023-10-13T02:45:03;5.32;;;2.70;;
72388;SDS011;60566;48.062;9.930;2023-10-13T02:47:30;8.68;;;3.33;;
72388;SDS011;60566;48.062;9.930;2023-10-13T02:49:57;6.60;;;3.00;;
72388;SDS011;60566;48.062;9.930;2023-10-13T02:52:22;11.63;;;3.17;;
72388;SDS011;60566;48.062;9.930;2023-10-13T02:54:48;8.90;;;3.22;;
72388;SDS011;60566;48.062;9.930;2023-10-13T02:57:13;6.63;;;2.90;;
72388;SDS011;60566;48.062;9.930;2023-10-13T02:59:39;8.10;;;3.05;;
72388;SDS011;60566;48.062;9.930;2023-10-13T03:02:04;7.13;;;2.63;;
72388;SDS011;60566;48.062;9.930;2023-10-13T03:04:30;10.27;;;3.45;;
72388;SDS011;60566;48.062;9.930;2023-10-13T03:06:56;8.00;;;3.67;;
72388;SDS011;60566;48.062;9.930;2023-10-13T03:09:22;10.43;;;3.35;;
72388;SDS011;60566;48.062;9.930;2023-10-13T03:11:48;7.40;;;3.38;;
72388;SDS011;60566;48.062;9.930;2023-10-13T03:14:13;6.53;;;2.90;;
72388;SDS011;60566;48.062;9.930;2023-10-13T03:16:39;8.23;;;2.72;;
72388;SDS011;60566;48.062;9.930;2023-10-13T03:19:04;8.60;;;3.10;;
72388;SDS011;60566;48.062;9.930;2023-10-13T03:21:30;9.18;;;3.08;;
72388;SDS011;60566;48.062;9.930;2023-10-13T03:23:57;8.82;;;3.05;;
72388;SDS011;60566;48.062;9.930;2023-10-13T03:26:24;8.32;;;2.90;;
72388;SDS011;60566;48.062;9.930;2023-10-13T03:28:49;8.43;;;2.92;;
72388;SDS011;60566;48.062;9.930;2023-10-13T03:31:15;12.35;;;3.03;;
72388;SDS011;60566;48.062;9.930;2023-10-13T03:33:40;10.05;;;3.72;;
72388;SDS011;60566;48.062;9.930;2023-10-13T03:36:05;8.63;;;3.28;;
72388;SDS011;60566;48.062;9.930;2023-10-13T03:38:31;7.68;;;3.25;;
72388;SDS011;60566;48.062;9.930;2023-10-13T03:40:58;7.45;;;3.05;;
72388;SDS011;60566;48.062;9.930;2023-10-13T03:43:23;7.57;;;3.20;;
72388;SDS011;60566;48.062;9.930;2023-10-13T03:45:49;9.48;;;3.13;;
72388;SDS011;60566;48.062;9.930;2023-10-13T03:48:15;9.65;;;3.38;;
72388;SDS011;60566;48.062;9.930;2023-10-13T03:50:41;5.95;;;3.35;;
72388;SDS011;60566;48.062;9.930;2023-10-13T03:53:07;12.55;;;5.18;;
72388;SDS011;60566;48.062;9.930;2023-10-13T03:55:32;9.48;;;4.05;;
72388;SDS011;60566;48.062;9.930;2023-10-13T03:57:59;8.55;;;3.40;;
72388;SDS011;60566;48.062;9.930;2023-10-13T04:00:24;6.88;;;3.13;;
72388;SDS011;60566;48.062;9.930;2023-10-13T04:02:50;7.95;;;2.92;;
72388;SDS011;60566;48.062;9.930;2023-10-13T04:05:15;9.85;;;2.88;;
72388;SDS011;60566;48.062;9.930;2023-10-13T04:07:41;7.25;;;3.28;;
72388;SDS011;60566;48.062;9.930;2023-10-13T04:10:07;7.72;;;3.63;;
72388;SDS011;60566;48.062;9.930;2023-10-13T04:12:32;8.35;;;3.42;;
72388;SDS011;60566;48.062;9.930;2023-10-13T04:14:59;7.35;;;3.50;;
72388;SDS011;60566;48.062;9.930;2023-10-13T04:17:24;8.52;;;3.33;;
72388;SDS011;60566;48.062;9.930;2023-10-13T04:19:50;8.65;;;3.75;;
72388;SDS011;60566;48.062;9.930;2023-10-13T04:22:16;9.27;;;3.13;;
72388;SDS011;60566;48.062;9.930;2023-10-13T04:24:41;8.05;;;3.53;;
72388;SDS011;60566;48.062;9.930;2023-10-13T04:27:07;8.18;;;3.40;;
72388;SDS011;60566;48.062;9.930;2023-10-13T04:29:32;9.80;;;3.40;;
72388;SDS011;60566;48.062;9.930;2023-10-13T04:31:59;7.63;;;3.03;;
72388;SDS011;60566;48.062;9.930;2023-10-13T04:34:24;9.23;;;2.72;;
72388;SDS011;60566;48.062;9.930;2023-10-13T04:36:50;9.45;;;3.08;;
72388;SDS011;60566;48.062;9.930;2023-10-13T04:39:15;9.13;;;3.17;;
72388;SDS011;60566;48.062;9.930;2023-10-13T04:41:41;8.25;;;3.17;;
72388;SDS011;60566;48.062;9.930;2023-10-13T04:44:06;8.70;;;3.40;;
72388;SDS011;60566;48.062;9.930;2023-10-13T04:46:32;7.28;;;2.90;;
72388;SDS011;60566;48.062;9.930;2023-10-13T04:48:59;7.72;;;3.08;;
72388;SDS011;60566;48.062;9.930;2023-10-13T04:51:24;9.05;;;3.08;;
72388;SDS011;60566;48.062;9.930;2023-10-13T04:53:50;9.90;;;3.25;;
72388;SDS011;60566;48.062;9.930;2023-10-13T04:56:15;7.15;;;2.90;;
72388;SDS011;60566;48.062;9.930;2023-10-13T04:58:40;7.20;;;2.83;;
72388;SDS011;60566;48.062;9.930;2023-10-13T05:01:06;7.82;;;3.42;;
72388;SDS011;60566;48.062;9.930;2023-10-13T05:03:31;5.28;;;2.70;;
72388;SDS011;60566;48.062;9.930;2023-10-13T05:05:58;9.98;;;3.15;;
72388;SDS011;60566;48.062;9.930;2023-10-13T05:08:23;13.25;;;4.47;;
72388;SDS011;60566;48.062;9.930;2023-10-13T05:10:49;11.48;;;4.03;;
72388;SDS011;60566;48.062;9.930;2023-10-13T05:13:14;10.70;;;3.10;;
72388;SDS011;60566;48.062;9.930;2023-10-13T05:15:43;11.50;;;3.25;;
72388;SDS011;60566;48.062;9.930;2023-10-13T05:18:09;17.50;;;3.20;;
72388;SDS011;60566;48.062;9.930;2023-10-13T05:20:34;15.48;;;3.47;;
72388;SDS011;60566;48.062;9.930;2023-10-13T05:23:01;9.25;;;3.30;;
72388;SDS011;60566;48.062;9.930;2023-10-13T05:25:26;10.85;;;2.90;;
72388;SDS011;60566;48.062;9.930;2023-10-13T05:27:51;9.48;;;2.63;;
72388;SDS011;60566;48.062;9.930;2023-10-13T05:30:17;9.10;;;3.03;;
72388;SDS011;60566;48.062;9.930;2023-10-13T05:32:42;10.57;;;3.90;;
72388;SDS011;60566;48.062;9.930;2023-10-13T05:35:08;11.05;;;2.92;;
72388;SDS011;60566;48.062;9.930;2023-10-13T05:37:33;13.80;;;3.50;;
72388;SDS011;60566;48.062;9.930;2023-10-13T05:40:03;10.25;;;2.92;;
72388;SDS011;60566;48.062;9.930;2023-10-13T05:42:29;9.00;;;3.10;;
72388;SDS011;60566;48.062;9.930;2023-10-13T05:44:54;9.93;;;2.63;;
72388;SDS011;60566;48.062;9.930;2023-10-13T05:47:20;12.18;;;3.30;;
72388;SDS011;60566;48.062;9.930;2023-10-13T05:49:45;7.32;;;3.00;;
72388;SDS011;60566;48.062;9.930;2023-10-13T05:52:10;11.32;;;3.10;;
72388;SDS011;60566;48.062;9.930;2023-10-13T05:54:36;7.78;;;3.17;;
72388;SDS011;60566;48.062;9.930;2023-10-13T05:57:02;7.80;;;2.70;;
72388;SDS011;60566;48.062;9.930;2023-10-13T05:59:28;6.47;;;3.20;;
72388;SDS011;60566;48.062;9.930;2023-10-13T06:01:54;8.32;;;2.80;;
72388;SDS011;60566;48.062;9.930;2023-10-13T06:04:19;15.18;;;3.70;;
72388;SDS011;60566;48.062;9.930;2023-10-13T06:06:44;7.85;;;2.80;;
72388;SDS011;60566;48.062;9.930;2023-10-13T06:09:10;12.75;;;4.10;;
72388;SDS011;60566;48.062;9.930;2023-10-13T06:11:35;9.68;;;2.80;;
72388;SDS011;60566;48.062;9.930;2023-10-13T06:14:02;16.48;;;2.97;;
72388;SDS011;60566;48.062;9.930;2023-10-13T06:16:27;6.32;;;2.22;;
72388;SDS011;60566;48.062;9.930;2023-10-13T06:18:53;8.32;;;2.60;;
72388;SDS011;60566;48.062;9.930;2023-10-13T06:21:19;6.55;;;3.08;;
72388;SDS011;60566;48.062;9.930;2023-10-13T06:23:44;13.20;;;3.35;;
72388;SDS011;60566;48.062;9.930;2023-10-13T06:26:10;7.43;;;2.88;;
72388;SDS011;60566;48.062;9.930;2023-10-13T06:28:35;7.45;;;3.25;;
72388;SDS011;60566;48.062;9.930;2023-10-13T06:31:03;6.68;;;2.45;;
72388;SDS011;60566;48.062;9.930;2023-10-13T06:33:29;6.95;;;2.50;;
72388;SDS011;60566;48.062;9.930;2023-10-13T06:35:55;7.30;;;3.03;;
72388;SDS011;60566;48.062;9.930;2023-10-13T06:38:21;10.10;;;2.58;;
72388;SDS011;60566;48.062;9.930;2023-10-13T06:40:47;7.57;;;2.72;;
72388;SDS011;60566;48.062;9.930;2023-10-13T06:43:12;5.22;;;2.45;;
72388;SDS011;60566;48.062;9.930;2023-10-13T06:45:38;12.55;;;2.95;;
72388;SDS011;60566;48.062;9.930;2023-10-13T06:48:05;16.60;;;6.78;;
72388;SDS011;60566;48.062;9.930;2023-10-13T06:50:31;16.75;;;7.25;;
72388;SDS011;60566;48.062;9.930;2023-10-13T06:52:57;11.23;;;5.22;;
72388;SDS011;60566;48.062;9.930;2023-10-13T06:55:22;22.77;;;6.22;;
72388;SDS011;60566;48.062;9.930;2023-10-13T06:57:48;17.50;;;3.78;;
72388;SDS011;60566;48.062;9.930;2023-10-13T07:00:13;13.32;;;4.03;;
72388;SDS011;60566;48.062;9.930;2023-10-13T07:02:39;9.85;;;3.30;;
72388;SDS011;60566;48.062;9.930;2023-10-13T07:05:06;14.75;;;6.45;;
72388;SDS011;60566;48.062;9.930;2023-10-13T07:07:31;10.77;;;3.92;;
72388;SDS011;60566;48.062;9.930;2023-10-13T07:09:57;16.08;;;4.10;;
72388;SDS011;60566;48.062;9.930;2023-10-13T07:12:22;15.40;;;5.55;;
72388;SDS011;60566;48.062;9.930;2023-10-13T07:14:48;17.15;;;7.25;;
72388;SDS011;60566;48.062;9.930;2023-10-13T07:17:13;11.90;;;5.68;;
72388;SDS011;60566;48.062;9.930;2023-10-13T07:19:39;21.25;;;8.52;;
72388;SDS011;60566;48.062;9.930;2023-10-13T07:22:06;22.30;;;8.98;;
72388;SDS011;60566;48.062;9.930;2023-10-13T07:24:31;16.30;;;4.90;;
72388;SDS011;60566;48.062;9.930;2023-10-13T07:26:57;19.15;;;8.00;;
72388;SDS011;60566;48.062;9.930;2023-10-13T07:29:22;13.15;;;4.05;;
72388;SDS011;60566;48.062;9.930;2023-10-13T07:31:47;22.05;;;7.18;;
72388;SDS011;60566;48.062;9.930;2023-10-13T07:34:13;16.58;;;7.32;;
72388;SDS011;60566;48.062;9.930;2023-10-13T07:36:39;14.32;;;4.75;;
72388;SDS011;60566;48.062;9.930;2023-10-13T07:39:06;15.95;;;4.70;;
72388;SDS011;60566;48.062;9.930;2023-10-13T07:41:31;14.55;;;5.45;;
72388;SDS011;60566;48.062;9.930;2023-10-13T07:43:56;11.50;;;2.83;;
72388;SDS011;60566;48.062;9.930;2023-10-13T07:46:22;11.93;;;3.28;;
72388;SDS011;60566;48.062;9.930;2023-10-13T07:48:47;8.00;;;2.53;;
72388;SDS011;60566;48.062;9.930;2023-10-13T07:51:13;11.82;;;3.17;;
72388;SDS011;60566;48.062;9.930;2023-10-13T07:53:39;11.50;;;2.50;;
72388;SDS011;60566;48.062;9.930;2023-10-13T07:56:06;9.73;;;3.13;;
72388;SDS011;60566;48.062;9.930;2023-10-13T07:58:31;9.25;;;2.85;;
72388;SDS011;60566;48.062;9.930;2023-10-13T08:00:57;7.53;;;2.63;;
72388;SDS011;60566;48.062;9.930;2023-10-13T08:03:22;9.07;;;2.63;;
72388;SDS011;60566;48.062;9.930;2023-10-13T08:05:51;11.15;;;2.80;;
72388;SDS011;60566;48.062;9.930;2023-10-13T08:08:17;7.68;;;2.70;;
72388;SDS011;60566;48.062;9.930;2023-10-13T08:10:43;9.63;;;2.75;;
72388;SDS011;60566;48.062;9.930;2023-10-13T08:13:09;8.68;;;2.53;;
72388;SDS011;60566;48.062;9.930;2023-10-13T08:15:35;7.93;;;2.67;;
72388;SDS011;60566;48.062;9.930;2023-10-13T08:18:00;9.88;;;2.47;;
72388;SDS011;60566;48.062;9.930;2023-10-13T08:20:26;6.25;;;2.58;;
72388;SDS011;60566;48.062;9.930;2023-10-13T08:22:51;10.05;;;2.83;;
72388;SDS011;60566;48.062;9.930;2023-10-13T08:25:16;10.90;;;2.53;;
72388;SDS011;60566;48.062;9.930;2023-10-13T08:27:42;9.02;;;3.15;;
72388;SDS011;60566;48.062;9.930;2023-10-13T08:30:09;5.43;;;2.65;;
72388;SDS011;60566;48.062;9.930;2023-10-13T08:35:00;9.27;;;2.73;;
72388;SDS011;60566;48.062;9.930;2023-10-13T08:37:26;13.40;;;3.13;;
72388;SDS011;60566;48.062;9.930;2023-10-13T08:39:53;11.10;;;2.78;;
72388;SDS011;60566;48.062;9.930;2023-10-13T08:42:19;11.13;;;4.20;;
72388;SDS011;60566;48.062;9.930;2023-10-13T08:44:45;9.07;;;2.35;;
72388;SDS011;60566;48.062;9.930;2023-10-13T08:47:11;9.20;;;2.40;;
72388;SDS011;60566;48.062;9.930;2023-10-13T08:49:38;9.32;;;2.58;;
72388;SDS011;60566;48.062;9.930;2023-10-13T08:52:03;21.02;;;3.88;;
72388;SDS011;60566;48.062;9.930;2023-10-13T08:54:29;11.18;;;2.35;;
72388;SDS011;60566;48.062;9.930;2023-10-13T08:56:54;8.43;;;2.70;;
72388;SDS011;60566;48.062;9.930;2023-10-13T08:59:20;10.52;;;2.72;;
72388;SDS011;60566;48.062;9.930;2023-10-13T09:01:45;13.75;;;2.80;;
72388;SDS011;60566;48.062;9.930;2023-10-13T09:04:12;12.75;;;2.58;;
72388;SDS011;60566;48.062;9.930;2023-10-13T09:09:04;8.13;;;2.30;;
72388;SDS011;60566;48.062;9.930;2023-10-13T09:11:32;9.10;;;2.22;;
72388;SDS011;60566;48.062;9.930;2023-10-13T09:13:58;13.43;;;3.10;;
72388;SDS011;60566;48.062;9.930;2023-10-13T09:16:23;10.20;;;3.00;;
72388;SDS011;60566;48.062;9.930;2023-10-13T09:18:49;6.28;;;2.25;;
72388;SDS011;60566;48.062;9.930;2023-10-13T09:21:16;10.63;;;3.53;;
72388;SDS011;60566;48.062;9.930;2023-10-13T09:23:45;6.63;;;2.28;;
72388;SDS011;60566;48.062;9.930;2023-10-13T09:26:10;10.50;;;2.40;;
72388;SDS011;60566;48.062;9.930;2023-10-13T09:28:36;8.95;;;1.80;;
72388;SDS011;60566;48.062;9.930;2023-10-13T09:31:01;8.52;;;2.13;;
72388;SDS011;60566;48.062;9.930;2023-10-13T09:33:28;8.30;;;2.30;;
72388;SDS011;60566;48.062;9.930;2023-10-13T09:35:54;7.93;;;2.13;;
72388;SDS011;60566;48.062;9.930;2023-10-13T09:38:20;8.20;;;2.85;;
72388;SDS011;60566;48.062;9.930;2023-10-13T09:40:46;7.30;;;2.08;;
72388;SDS011;60566;48.062;9.930;2023-10-13T09:43:11;7.05;;;2.15;;
72388;SDS011;60566;48.062;9.930;2023-10-13T09:45:37;8.40;;;2.50;;
72388;SDS011;60566;48.062;9.930;2023-10-13T09:48:03;9.65;;;2.10;;
72388;SDS011;60566;48.062;9.930;2023-10-13T09:50:29;9.02;;;2.53;;
72388;SDS011;60566;48.062;9.930;2023-10-13T09:52:55;9.05;;;2.45;;
72388;SDS011;60566;48.062;9.930;2023-10-13T09:55:23;11.23;;;2.20;;
72388;SDS011;60566;48.062;9.930;2023-10-13T09:57:53;8.40;;;2.47;;
72388;SDS011;60566;48.062;9.930;2023-10-13T10:00:22;8.07;;;2.33;;
72388;SDS011;60566;48.062;9.930;2023-10-13T10:02:48;9.43;;;2.22;;
72388;SDS011;60566;48.062;9.930;2023-10-13T10:05:13;10.15;;;2.63;;
72388;SDS011;60566;48.062;9.930;2023-10-13T10:07:54;5.22;;;1.98;;
72388;SDS011;60566;48.062;9.930;2023-10-13T10:10:20;8.60;;;2.28;;
72388;SDS011;60566;48.062;9.930;2023-10-13T10:12:48;8.35;;;2.30;;
72388;SDS011;60566;48.062;9.930;2023-10-13T10:15:20;7.07;;;2.60;;
72388;SDS011;60566;48.062;9.930;2023-10-13T10:17:49;7.75;;;2.40;;
72388;SDS011;60566;48.062;9.930;2023-10-13T10:20:14;6.88;;;2.20;;
72388;SDS011;60566;48.062;9.930;2023-10-13T10:22:40;9.55;;;2.38;;
72388;SDS011;60566;48.062;9.930;2023-10-13T10:25:05;7.53;;;2.10;;
72388;SDS011;60566;48.062;9.930;2023-10-13T10:27:33;13.75;;;2.60;;
72388;SDS011;60566;48.062;9.930;2023-10-13T10:30:00;10.23;;;2.10;;
72388;SDS011;60566;48.062;9.930;2023-10-13T10:32:33;6.93;;;2.53;;
72388;SDS011;60566;48.062;9.930;2023-10-13T10:35:02;8.23;;;3.08;;
72388;SDS011;60566;48.062;9.930;2023-10-13T10:37:30;6.13;;;2.45;;
72388;SDS011;60566;48.062;9.930;2023-10-13T10:39:56;10.65;;;2.70;;
72388;SDS011;60566;48.062;9.930;2023-10-13T10:42:23;6.53;;;2.10;;
72388;SDS011;60566;48.062;9.930;2023-10-13T10:44:50;8.85;;;2.58;;
72388;SDS011;60566;48.062;9.930;2023-10-13T10:47:16;5.22;;;2.08;;
72388;SDS011;60566;48.062;9.930;2023-10-13T10:49:41;6.53;;;2.38;;
72388;SDS011;60566;48.062;9.930;2023-10-13T10:52:07;9.50;;;2.45;;
72388;SDS011;60566;48.062;9.930;2023-10-13T10:54:34;5.45;;;2.20;;
72388;SDS011;60566;48.062;9.930;2023-10-13T10:57:00;6.93;;;2.08;;
72388;SDS011;60566;48.062;9.930;2023-10-13T10:59:26;7.82;;;3.08;;
72388;SDS011;60566;48.062;9.930;2023-10-13T11:02:00;6.32;;;2.20;;
72388;SDS011;60566;48.062;9.930;2023-10-13T11:04:26;4.78;;;2.20;;
72388;SDS011;60566;48.062;9.930;2023-10-13T11:06:51;7.82;;;2.13;;
72388;SDS011;60566;48.062;9.930;2023-10-13T11:09:24;9.35;;;2.30;;
72388;SDS011;60566;48.062;9.930;2023-10-13T11:11:51;13.95;;;2.50;;
72388;SDS011;60566;48.062;9.930;2023-10-13T11:14:20;7.55;;;2.22;;
72388;SDS011;60566;48.062;9.930;2023-10-13T11:16:46;9.27;;;2.08;;
72388;SDS011;60566;48.062;9.930;2023-10-13T11:19:13;9.38;;;1.80;;
72388;SDS011;60566;48.062;9.930;2023-10-13T11:21:38;8.40;;;2.00;;
72388;SDS011;60566;48.062;9.930;2023-10-13T11:24:04;9.00;;;2.80;;
72388;SDS011;60566;48.062;9.930;2023-10-13T11:26:33;11.73;;;1.83;;
72388;SDS011;60566;48.062;9.930;2023-10-13T11:28:58;16.13;;;3.35;;
72388;SDS011;60566;48.062;9.930;2023-10-13T11:31:27;11.00;;;2.58;;
72388;SDS011;60566;48.062;9.930;2023-10-13T11:33:52;17.60;;;3.15;;
72388;SDS011;60566;48.062;9.930;2023-10-13T11:36:19;11.13;;;2.30;;
72388;SDS011;60566;48.062;9.930;2023-10-13T11:38:44;16.27;;;3.08;;
72388;SDS011;60566;48.062;9.930;2023-10-13T11:41:10;7.50;;;2.10;;
72388;SDS011;60566;48.062;9.930;2023-10-13T11:43:36;5.13;;;1.70;;
72388;SDS011;60566;48.062;9.930;2023-10-13T11:46:02;10.98;;;2.50;;
72388;SDS011;60566;48.062;9.930;2023-10-13T11:48:27;7.18;;;2.00;;
72388;SDS011;60566;48.062;9.930;2023-10-13T11:50:53;8.35;;;2.15;;
72388;SDS011;60566;48.062;9.930;2023-10-13T11:53:19;7.95;;;2.35;;
72388;SDS011;60566;48.062;9.930;2023-10-13T11:55:45;14.88;;;3.10;;
72388;SDS011;60566;48.062;9.930;2023-10-13T11:58:10;7.50;;;2.08;;
72388;SDS011;60566;48.062;9.930;2023-10-13T12:00:35;9.52;;;2.30;;
72388;SDS011;60566;48.062;9.930;2023-10-13T12:03:01;10.35;;;2.05;;
72388;SDS011;60566;48.062;9.930;2023-10-13T12:05:26;11.18;;;2.28;;
72388;SDS011;60566;48.062;9.930;2023-10-13T12:07:52;11.98;;;2.45;;
72388;SDS011;60566;48.062;9.930;2023-10-13T12:10:18;6.43;;;2.35;;
72388;SDS011;60566;48.062;9.930;2023-10-13T12:12:44;12.95;;;2.92;;
72388;SDS011;60566;48.062;9.930;2023-10-13T12:15:09;8.00;;;2.17;;
72388;SDS011;60566;48.062;9.930;2023-10-13T12:17:35;9.65;;;2.38;;
72388;SDS011;60566;48.062;9.930;2023-10-13T12:20:00;6.95;;;2.28;;
72388;SDS011;60566;48.062;9.930;2023-10-13T12:22:26;27.90;;;3.22;;
72388;SDS011;60566;48.062;9.930;2023-10-13T12:24:51;5.35;;;2.33;;
72388;SDS011;60566;48.062;9.930;2023-10-13T12:27:18;6.53;;;2.00;;
72388;SDS011;60566;48.062;9.930;2023-10-13T12:29:44;8.18;;;2.50;;
72388;SDS011;60566;48.062;9.930;2023-10-13T12:32:10;6.57;;;2.35;;
72388;SDS011;60566;48.062;9.930;2023-10-13T12:34:38;7.90;;;2.60;;
72388;SDS011;60566;48.062;9.930;2023-10-13T12:37:04;6.97;;;2.30;;
72388;SDS011;60566;48.062;9.930;2023-10-13T12:39:29;8.35;;;2.50;;
72388;SDS011;60566;48.062;9.930;2023-10-13T12:41:54;6.38;;;2.40;;
72388;SDS011;60566;48.062;9.930;2023-10-13T12:44:21;7.05;;;2.72;;
72388;SDS011;60566;48.062;9.930;2023-10-13T12:46:46;6.57;;;2.28;;
72388;SDS011;60566;48.062;9.930;2023-10-13T12:49:12;12.63;;;2.90;;
72388;SDS011;60566;48.062;9.930;2023-10-13T12:51:37;5.13;;;2.22;;
72388;SDS011;60566;48.062;9.930;2023-10-13T12:54:03;13.00;;;2.33;;
72388;SDS011;60566;48.062;9.930;2023-10-13T12:56:28;6.15;;;2.42;;
72388;SDS011;60566;48.062;9.930;2023-10-13T12:58:54;7.47;;;2.83;;
72388;SDS011;60566;48.062;9.930;2023-10-13T13:01:21;6.28;;;2.35;;
72388;SDS011;60566;48.062;9.930;2023-10-13T13:03:48;6.75;;;2.60;;
72388;SDS011;60566;48.062;9.930;2023-10-13T13:06:16;8.55;;;2.70;;
72388;SDS011;60566;48.062;9.930;2023-10-13T13:08:42;6.80;;;2.58;;
72388;SDS011;60566;48.062;9.930;2023-10-13T13:11:07;8.13;;;3.08;;
72388;SDS011;60566;48.062;9.930;2023-10-13T13:13:33;7.25;;;2.38;;
72388;SDS011;60566;48.062;9.930;2023-10-13T13:15:58;8.63;;;2.58;;
72388;SDS011;60566;48.062;9.930;2023-10-13T13:18:25;5.45;;;2.33;;
72388;SDS011;60566;48.062;9.930;2023-10-13T13:20:50;11.02;;;2.90;;
72388;SDS011;60566;48.062;9.930;2023-10-13T13:23:15;10.35;;;3.67;;
72388;SDS011;60566;48.062;9.930;2023-10-13T13:25:41;12.05;;;2.63;;
72388;SDS011;60566;48.062;9.930;2023-10-13T13:28:06;13.35;;;2.85;;
72388;SDS011;60566;48.062;9.930;2023-10-13T13:30:32;11.15;;;2.42;;
72388;SDS011;60566;48.062;9.930;2023-10-13T13:32:57;9.77;;;2.60;;
72388;SDS011;60566;48.062;9.930;2023-10-13T13:35:24;6.25;;;2.42;;
72388;SDS011;60566;48.062;9.930;2023-10-13T13:37:49;13.00;;;2.85;;
72388;SDS011;60566;48.062;9.930;2023-10-13T13:40:15;9.65;;;2.50;;
72388;SDS011;60566;48.062;9.930;2023-10-13T13:42:40;9.70;;;2.70;;
72388;SDS011;60566;48.062;9.930;2023-10-13T13:45:06;6.40;;;2.53;;
72388;SDS011;60566;48.062;9.930;2023-10-13T13:47:33;4.80;;;2.30;;
72388;SDS011;60566;48.062;9.930;2023-10-13T13:50:01;9.20;;;2.80;;
72388;SDS011;60566;48.062;9.930;2023-10-13T13:52:28;11.00;;;3.40;;
72388;SDS011;60566;48.062;9.930;2023-10-13T13:54:54;8.77;;;2.50;;
72388;SDS011;60566;48.062;9.930;2023-10-13T13:57:19;7.32;;;2.55;;
72388;SDS011;60566;48.062;9.930;2023-10-13T13:59:45;8.63;;;3.13;;
72388;SDS011;60566;48.062;9.930;2023-10-13T14:02:10;10.20;;;2.40;;
72388;SDS011;60566;48.062;9.930;2023-10-13T14:04:36;7.95;;;2.90;;
72388;SDS011;60566;48.062;9.930;2023-10-13T14:07:01;8.25;;;2.80;;
72388;SDS011;60566;48.062;9.930;2023-10-13T14:09:28;9.55;;;2.92;;
72388;SDS011;60566;48.062;9.930;2023-10-13T14:11:53;11.35;;;2.67;;
72388;SDS011;60566;48.062;9.930;2023-10-13T14:14:19;8.05;;;2.58;;
72388;SDS011;60566;48.062;9.930;2023-10-13T14:16:44;10.85;;;2.72;;
72388;SDS011;60566;48.062;9.930;2023-10-13T14:19:09;6.35;;;2.38;;
72388;SDS011;60566;48.062;9.930;2023-10-13T14:21:35;5.22;;;2.80;;
72388;SDS011;60566;48.062;9.930;2023-10-13T14:24:01;6.43;;;3.30;;
72388;SDS011;60566;48.062;9.930;2023-10-13T14:26:27;8.00;;;3.05;;
72388;SDS011;60566;48.062;9.930;2023-10-13T14:28:53;8.95;;;2.55;;
72388;SDS011;60566;48.062;9.930;2023-10-13T14:31:19;10.57;;;3.08;;
72388;SDS011;60566;48.062;9.930;2023-10-13T14:33:45;8.43;;;3.22;;
72388;SDS011;60566;48.062;9.930;2023-10-13T14:36:10;12.05;;;2.60;;
72388;SDS011;60566;48.062;9.930;2023-10-13T14:38:36;8.48;;;2.55;;
72388;SDS011;60566;48.062;9.930;2023-10-13T14:41:01;9.20;;;2.85;;